Time;durP1;ratioP1;P1;durP2;ratioP2;P2;SDS_P1;SDS_P2;PMS_P1;PMS_P2;Temp;Humidity;BMP_temperature;BMP_pressure;BME280_temperature;BME280_humidity;BME280_pressure;Samples;Min_cycle;Max_cycle;Signal;HPM_P1;HPM_P2
2020/12/16 00:00:19;;;;;;;86.35;54.88;;;6.20;99.90;;;;;;5092638;28;20534;-82
2020/12/16 00:02:44;;;;;;;81.50;51.53;;;6.20;99.90;;;;;;5074600;28;20922;-82
2020/12/16 00:05:11;;;;;;;98.67;58.53;;;6.20;99.90;;;;;;5074856;28;20730;-82
2020/12/16 00:07:38;;;;;;;129.93;73.70;;;6.20;99.90;;;;;;5092596;28;20372;-82
2020/12/16 00:10:07;;;;;;;105.53;64.30;;;6.10;99.90;;;;;;5074586;28;20382;-82
2020/12/16 00:12:33;;;;;;;331.20;170.23;;;6.10;99.90;;;;;;5074437;28;20404;-82
2020/12/16 00:14:59;;;;;;;130.90;73.80;;;6.10;99.90;;;;;;5074308;28;20422;-82
2020/12/16 00:17:24;;;;;;;107.40;62.83;;;6.00;99.90;;;;;;5092654;28;20426;-83
2020/12/16 00:19:50;;;;;;;198.07;107.73;;;6.00;99.90;;;;;;5092895;28;20392;-83
2020/12/16 00:22:16;;;;;;;97.80;60.10;;;6.10;99.90;;;;;;5074049;28;20372;-83
2020/12/16 00:24:42;;;;;;;115.07;68.80;;;6.20;99.90;;;;;;5092965;28;20370;-83
2020/12/16 00:27:11;;;;;;;205.83;112.77;;;6.20;99.90;;;;;;5074725;28;20773;-83
2020/12/16 00:29:40;;;;;;;284.42;160.07;;;6.20;99.90;;;;;;5074636;28;20383;-84
2020/12/16 00:32:06;;;;;;;398.25;236.48;;;6.30;99.90;;;;;;5092604;28;20364;-83
2020/12/16 00:34:32;;;;;;;103.38;64.88;;;6.20;99.90;;;;;;5092378;28;20392;-83
2020/12/16 00:36:58;;;;;;;330.40;180.07;;;6.20;99.90;;;;;;5092200;28;20734;-82
2020/12/16 00:39:23;;;;;;;194.97;107.37;;;6.20;99.90;;;;;;5074054;28;20387;-81
2020/12/16 00:41:49;;;;;;;93.97;59.00;;;6.30;99.90;;;;;;5073921;28;20483;-81
2020/12/16 00:44:15;;;;;;;92.53;58.35;;;6.30;99.90;;;;;;5092595;28;20360;-81
2020/12/16 00:46:41;;;;;;;198.82;111.97;;;6.30;99.90;;;;;;5092516;28;20467;-82
2020/12/16 00:49:07;;;;;;;182.27;100.50;;;6.20;99.90;;;;;;5074363;28;20406;-81
2020/12/16 00:51:33;;;;;;;117.82;69.53;;;6.20;99.90;;;;;;5074245;28;20859;-81
2020/12/16 00:53:59;;;;;;;154.87;92.77;;;6.20;99.90;;;;;;5092404;28;20446;-81
2020/12/16 00:56:25;;;;;;;116.50;71.37;;;6.20;99.90;;;;;;5092482;28;20873;-81
2020/12/16 00:58:51;;;;;;;115.88;71.22;;;6.30;99.90;;;;;;5092400;28;20383;-81
2020/12/16 01:01:17;;;;;;;130.98;79.75;;;6.20;99.90;;;;;;5092310;28;20493;-81
2020/12/16 01:03:43;;;;;;;326.83;191.38;;;6.30;99.90;;;;;;5092235;28;20376;-81
2020/12/16 01:06:11;;;;;;;118.00;73.75;;;6.30;99.90;;;;;;5074256;28;20370;-81
2020/12/16 01:08:39;;;;;;;140.55;84.22;;;6.30;99.90;;;;;;5092308;28;20387;-82
2020/12/16 01:11:05;;;;;;;117.95;71.25;;;6.20;99.90;;;;;;5092750;28;20724;-81
2020/12/16 01:13:31;;;;;;;112.13;70.43;;;6.30;99.90;;;;;;5074093;28;20377;-81
2020/12/16 01:15:57;;;;;;;106.27;66.97;;;6.30;99.90;;;;;;5074137;28;20869;-81
2020/12/16 01:18:23;;;;;;;94.10;61.67;;;6.20;99.90;;;;;;5092232;28;20368;-81
2020/12/16 01:20:49;;;;;;;104.30;65.40;;;6.20;99.90;;;;;;5092174;28;20878;-81
2020/12/16 01:23:14;;;;;;;108.03;67.77;;;6.20;99.90;;;;;;5074086;28;20357;-81
2020/12/16 01:25:40;;;;;;;122.67;74.57;;;6.10;99.90;;;;;;5092176;28;20763;-81
2020/12/16 01:28:07;;;;;;;121.17;78.33;;;6.20;99.90;;;;;;5073914;28;20455;-81
2020/12/16 01:30:32;;;;;;;118.15;74.88;;;6.20;99.90;;;;;;5092165;28;20451;-81
2020/12/16 01:32:58;;;;;;;109.13;69.50;;;6.20;99.90;;;;;;5073833;28;20447;-81
2020/12/16 01:35:26;;;;;;;120.18;73.15;;;6.20;99.90;;;;;;5076351;28;20372;-82
2020/12/16 01:37:53;;;;;;;102.65;64.57;;;6.20;99.90;;;;;;5096139;28;20451;-82
2020/12/16 01:40:19;;;;;;;172.88;74.28;;;6.20;99.90;;;;;;5077854;28;20439;-81
2020/12/16 01:42:45;;;;;;;115.47;70.60;;;6.20;99.90;;;;;;5096037;28;21172;-81
2020/12/16 01:45:18;;;;;;;122.03;71.38;;;6.20;99.90;;;;;;5077851;28;20396;-82
2020/12/16 01:47:44;;;;;;;114.45;72.45;;;6.20;99.90;;;;;;5095954;28;20455;-81
2020/12/16 01:50:11;;;;;;;106.88;68.50;;;6.20;99.90;;;;;;5095837;28;20448;-81
2020/12/16 01:52:41;;;;;;;110.40;68.75;;;6.20;99.90;;;;;;5077620;28;20373;-81
2020/12/16 01:55:09;;;;;;;105.80;67.10;;;6.20;99.90;;;;;;5077530;28;20719;-81
2020/12/16 01:57:39;;;;;;;104.07;65.40;;;6.20;99.90;;;;;;5095886;28;20360;-81
2020/12/16 02:00:10;;;;;;;113.27;69.67;;;6.10;99.90;;;;;;5077465;28;20467;-81
2020/12/16 02:02:51;;;;;;;100.57;63.00;;;6.10;99.90;;;;;;5095646;28;20395;-82
2020/12/16 02:05:19;;;;;;;98.45;62.15;;;6.10;99.90;;;;;;5095581;28;20364;-82
2020/12/16 02:07:46;;;;;;;94.10;59.95;;;6.10;99.90;;;;;;5095561;28;20369;-82
2020/12/16 02:10:13;;;;;;;105.93;62.90;;;6.10;99.90;;;;;;5077356;28;20384;-82
2020/12/16 02:12:39;;;;;;;97.28;62.38;;;6.10;99.90;;;;;;5077228;28;20383;-82
2020/12/16 02:15:09;;;;;;;106.55;64.70;;;6.10;99.90;;;;;;5077270;28;20735;-82
2020/12/16 02:17:35;;;;;;;102.70;62.73;;;6.10;99.90;;;;;;5095394;28;20847;-82
2020/12/16 02:20:05;;;;;;;115.00;68.65;;;6.10;99.90;;;;;;5095209;28;20859;-82
2020/12/16 02:22:31;;;;;;;102.87;63.47;;;6.10;99.90;;;;;;5077105;28;20383;-82
2020/12/16 02:25:02;;;;;;;96.68;58.00;;;6.10;99.90;;;;;;5095214;28;20364;-82
2020/12/16 02:27:29;;;;;;;96.43;59.53;;;6.10;99.90;;;;;;5095110;28;20368;-82
2020/12/16 02:29:55;;;;;;;98.07;59.07;;;6.10;99.90;;;;;;5095172;28;20424;-82
2020/12/16 02:32:25;;;;;;;101.28;60.92;;;6.10;99.90;;;;;;5095121;28;20364;-81
2020/12/16 02:34:52;;;;;;;94.72;59.33;;;6.10;99.90;;;;;;5094759;28;20380;-81
2020/12/16 02:37:18;;;;;;;103.10;60.42;;;6.10;99.90;;;;;;5095247;28;20409;-81
2020/12/16 02:39:44;;;;;;;97.60;60.13;;;6.10;99.90;;;;;;5076783;28;20461;-81
2020/12/16 02:42:11;;;;;;;101.10;60.77;;;6.10;99.90;;;;;;5094724;28;20425;-81
2020/12/16 02:44:37;;;;;;;105.85;62.25;;;6.10;99.90;;;;;;5076629;28;20367;-81
2020/12/16 02:47:04;;;;;;;99.07;60.92;;;6.10;99.90;;;;;;5094388;28;20375;-82
2020/12/16 02:49:30;;;;;;;99.18;59.72;;;6.10;99.90;;;;;;5076655;28;20883;-82
2020/12/16 02:51:57;;;;;;;95.40;58.38;;;6.10;99.90;;;;;;5076521;28;20376;-81
2020/12/16 02:54:23;;;;;;;98.03;58.13;;;6.10;99.90;;;;;;5094676;28;20376;-81
2020/12/16 02:56:50;;;;;;;91.57;56.60;;;6.10;99.90;;;;;;5094662;28;20371;-81
2020/12/16 02:59:20;;;;;;;96.25;57.40;;;6.10;99.90;;;;;;5094568;28;20922;-82
2020/12/16 03:01:50;;;;;;;96.50;58.63;;;6.10;99.90;;;;;;5076308;28;20475;-82
2020/12/16 03:04:17;;;;;;;93.82;56.80;;;6.10;99.90;;;;;;5076376;28;20365;-83
2020/12/16 03:06:49;;;;;;;97.83;59.83;;;6.10;99.90;;;;;;5076343;28;20452;-83
2020/12/16 03:09:16;;;;;;;96.15;58.83;;;6.00;99.90;;;;;;5076181;28;20859;-82
2020/12/16 03:11:42;;;;;;;99.80;60.78;;;6.10;99.90;;;;;;5094247;28;20459;-82
2020/12/16 03:14:08;;;;;;;92.18;55.28;;;6.00;99.90;;;;;;5094230;28;20432;-82
2020/12/16 03:16:34;;;;;;;93.90;56.37;;;5.90;99.90;;;;;;5094227;28;20456;-83
2020/12/16 03:19:00;;;;;;;95.90;56.53;;;5.90;99.90;;;;;;5094134;28;20411;-82
2020/12/16 03:21:26;;;;;;;93.05;56.53;;;5.90;99.90;;;;;;5093976;28;20398;-80
2020/12/16 03:23:53;;;;;;;95.53;56.28;;;5.90;99.90;;;;;;5075944;28;20757;-81
2020/12/16 03:26:20;;;;;;;88.93;52.92;;;6.00;99.90;;;;;;5094107;28;20368;-82
2020/12/16 03:28:46;;;;;;;97.97;58.55;;;6.00;99.90;;;;;;5093890;28;20368;-81
2020/12/16 03:31:13;;;;;;;90.20;54.37;;;6.00;99.90;;;;;;5093946;28;20369;-81
2020/12/16 03:33:43;;;;;;;92.88;54.47;;;6.00;99.90;;;;;;5075489;28;20396;-82
2020/12/16 03:36:16;;;;;;;96.27;55.00;;;5.90;99.90;;;;;;5093877;28;20479;-81
2020/12/16 03:38:42;;;;;;;90.03;53.45;;;6.00;99.90;;;;;;5075658;28;20404;-81
2020/12/16 03:41:08;;;;;;;93.32;54.92;;;5.90;99.90;;;;;;5093599;28;20385;-82
2020/12/16 03:43:34;;;;;;;97.70;58.15;;;5.90;99.90;;;;;;5093665;28;20451;-82
2020/12/16 03:46:00;;;;;;;95.73;56.70;;;5.90;99.90;;;;;;5093667;28;20383;-82
2020/12/16 03:48:26;;;;;;;94.05;55.10;;;5.90;99.90;;;;;;5093555;28;20356;-82
2020/12/16 03:50:52;;;;;;;93.28;55.95;;;5.90;99.90;;;;;;5093581;28;20383;-83
2020/12/16 03:53:18;;;;;;;102.07;58.55;;;5.90;99.90;;;;;;5075305;28;20376;-83
2020/12/16 03:55:44;;;;;;;97.78;57.85;;;5.90;99.90;;;;;;5093460;28;20383;-83
2020/12/16 03:58:09;;;;;;;98.78;58.50;;;6.00;99.90;;;;;;5092568;28;20367;-83
2020/12/16 04:00:35;;;;;;;92.72;55.13;;;6.00;99.90;;;;;;5075079;28;20419;-83
2020/12/16 04:03:01;;;;;;;95.75;55.85;;;6.00;99.90;;;;;;5093274;28;20387;-82
2020/12/16 04:05:27;;;;;;;94.63;56.03;;;6.00;99.90;;;;;;5075146;28;20369;-83
2020/12/16 04:07:53;;;;;;;90.13;54.45;;;6.00;99.90;;;;;;5093328;28;20370;-82
2020/12/16 04:10:19;;;;;;;89.50;52.92;;;5.90;99.90;;;;;;5093376;28;20384;-83
2020/12/16 04:12:44;;;;;;;92.88;53.72;;;5.90;99.90;;;;;;5093140;28;20407;-83
2020/12/16 04:15:10;;;;;;;88.75;53.45;;;5.90;99.90;;;;;;5093124;28;20396;-82
2020/12/16 04:17:36;;;;;;;90.57;53.33;;;5.90;99.90;;;;;;5074974;28;20376;-83
2020/12/16 04:20:04;;;;;;;91.60;55.00;;;6.00;99.90;;;;;;5092934;28;20397;-83
2020/12/16 04:22:30;;;;;;;95.97;55.03;;;6.00;99.90;;;;;;5074725;28;20364;-82
2020/12/16 04:24:56;;;;;;;103.68;61.60;;;5.90;99.90;;;;;;5092905;28;20357;-82
2020/12/16 04:27:22;;;;;;;295.77;161.68;;;5.90;99.90;;;;;;5092890;28;20893;-83
2020/12/16 04:29:48;;;;;;;102.25;58.88;;;6.00;99.90;;;;;;5074592;28;20371;-82
2020/12/16 04:32:14;;;;;;;87.20;52.78;;;6.00;99.90;;;;;;5092822;28;20374;-82
2020/12/16 04:34:40;;;;;;;90.20;51.60;;;6.00;99.90;;;;;;5074490;28;20441;-81
2020/12/16 04:37:07;;;;;;;88.07;52.20;;;6.00;99.90;;;;;;5092577;28;20452;-82
2020/12/16 04:39:33;;;;;;;90.77;51.80;;;5.90;99.90;;;;;;5092721;28;20800;-82
2020/12/16 04:41:59;;;;;;;92.20;54.50;;;5.90;99.90;;;;;;5092628;28;20463;-82
2020/12/16 04:44:25;;;;;;;90.32;52.38;;;5.90;99.90;;;;;;5092625;28;20356;-83
2020/12/16 04:46:51;;;;;;;93.38;54.50;;;5.90;99.90;;;;;;5092595;28;20364;-83
2020/12/16 04:49:17;;;;;;;96.57;55.33;;;5.90;99.90;;;;;;5074471;28;21059;-83
2020/12/16 04:51:44;;;;;;;96.90;55.05;;;5.80;99.90;;;;;;5092499;28;20368;-82
2020/12/16 04:54:12;;;;;;;89.18;51.92;;;5.80;99.90;;;;;;5074351;28;20387;-82
2020/12/16 04:56:40;;;;;;;88.78;52.70;;;5.80;99.90;;;;;;5092515;28;20368;-82
2020/12/16 04:59:07;;;;;;;86.70;51.08;;;5.80;99.90;;;;;;5092370;28;20380;-82
2020/12/16 05:01:41;;;;;;;91.18;51.33;;;5.80;99.90;;;;;;5092374;28;20392;-82
2020/12/16 05:04:08;;;;;;;87.15;50.33;;;5.80;99.90;;;;;;5074258;28;20404;-81
2020/12/16 05:06:41;;;;;;;92.00;54.13;;;5.90;99.90;;;;;;5074229;28;20372;-82
2020/12/16 05:09:06;;;;;;;87.15;51.20;;;5.80;99.90;;;;;;5091994;28;20360;-82
2020/12/16 05:11:46;;;;;;;89.10;52.03;;;5.80;99.90;;;;;;5092325;28;20855;-82
2020/12/16 05:14:22;;;;;;;88.90;51.97;;;5.80;99.90;;;;;;5074127;28;20418;-82
2020/12/16 05:16:59;;;;;;;104.38;55.17;;;5.80;99.90;;;;;;5074044;28;20377;-82
2020/12/16 05:19:44;;;;;;;94.13;55.90;;;5.80;99.90;;;;;;5092178;28;20539;-82
2020/12/16 05:22:25;;;;;;;107.90;58.85;;;5.80;99.90;;;;;;5074032;28;20492;-82
2020/12/16 05:24:53;;;;;;;101.78;61.00;;;5.80;99.90;;;;;;5074022;28;20369;-81
2020/12/16 05:27:26;;;;;;;100.45;58.88;;;5.80;99.90;;;;;;5073944;28;20403;-81
2020/12/16 05:29:57;;;;;;;100.93;57.17;;;5.70;99.90;;;;;;5073902;28;20372;-82
2020/12/16 05:32:26;;;;;;;94.65;56.22;;;5.70;99.90;;;;;;5092165;28;20422;-81
2020/12/16 05:34:53;;;;;;;96.38;57.15;;;5.70;99.90;;;;;;5091897;28;20415;-82
2020/12/16 05:37:28;;;;;;;101.07;61.42;;;5.60;99.90;;;;;;5092046;28;20372;-80
2020/12/16 05:39:57;;;;;;;88.55;51.55;;;5.60;99.90;;;;;;5091863;28;20374;-81
2020/12/16 05:42:24;;;;;;;91.97;54.97;;;5.50;99.90;;;;;;5073856;28;20377;-81
2020/12/16 05:44:51;;;;;;;96.88;55.88;;;5.60;99.90;;;;;;5073850;28;20723;-82
2020/12/16 05:47:17;;;;;;;93.65;55.05;;;5.60;99.90;;;;;;5073716;28;20397;-82
2020/12/16 05:49:43;;;;;;;92.35;52.35;;;5.60;99.90;;;;;;5091914;28;20392;-82
2020/12/16 05:52:09;;;;;;;96.28;56.20;;;5.60;99.90;;;;;;5073707;28;20404;-82
2020/12/16 05:54:37;;;;;;;96.57;57.83;;;5.60;99.90;;;;;;5073771;28;20400;-82
2020/12/16 05:57:21;;;;;;;103.38;61.42;;;5.60;99.90;;;;;;5074031;28;20715;-82
2020/12/16 06:00:10;;;;;;;107.68;59.17;;;5.70;99.90;;;;;;5091754;28;20455;-82
2020/12/16 06:02:45;;;;;;;98.40;57.63;;;5.70;99.90;;;;;;5073708;28;20389;-82
2020/12/16 06:05:14;;;;;;;101.50;57.63;;;5.60;99.90;;;;;;5073695;28;20376;-82
2020/12/16 06:07:42;;;;;;;102.35;57.63;;;5.60;99.90;;;;;;5091762;28;20399;-82
2020/12/16 06:10:09;;;;;;;93.68;54.13;;;5.60;99.90;;;;;;5073676;28;20388;-83
2020/12/16 06:12:39;;;;;;;95.03;53.22;;;5.60;99.90;;;;;;5073517;28;20783;-83
2020/12/16 06:15:16;;;;;;;97.07;55.85;;;5.60;99.90;;;;;;5091701;28;20497;-83
2020/12/16 06:17:48;;;;;;;96.70;53.55;;;5.60;99.90;;;;;;5073501;28;20719;-82
2020/12/16 06:20:17;;;;;;;92.63;51.90;;;5.60;99.90;;;;;;5073791;28;20735;-81
2020/12/16 06:22:45;;;;;;;100.30;56.95;;;5.60;99.90;;;;;;5077043;28;20364;-81
2020/12/16 06:25:14;;;;;;;102.85;59.90;;;5.50;99.90;;;;;;5095245;28;20388;-81
2020/12/16 06:27:48;;;;;;;88.75;52.13;;;5.50;99.90;;;;;;5095214;28;20368;-81
2020/12/16 06:30:32;;;;;;;86.97;50.75;;;5.40;99.90;;;;;;5076894;28;20373;-81
2020/12/16 06:33:24;;;;;;;93.47;51.67;;;5.40;99.90;;;;;;5076924;28;20383;-81
2020/12/16 06:35:58;;;;;;;82.55;47.30;;;5.40;99.90;;;;;;5095085;28;20381;-81
2020/12/16 06:38:24;;;;;;;93.80;51.50;;;5.50;99.90;;;;;;5095010;28;20391;-81
2020/12/16 06:40:52;;;;;;;100.67;58.93;;;5.50;99.90;;;;;;5094927;28;20420;-81
2020/12/16 06:43:30;;;;;;;108.97;61.63;;;5.50;99.90;;;;;;5076670;28;20373;-81
2020/12/16 06:45:58;;;;;;;107.40;61.17;;;5.50;99.90;;;;;;5094788;28;20754;-81
2020/12/16 06:48:33;;;;;;;118.45;69.90;;;5.50;99.90;;;;;;5094709;28;20918;-81
2020/12/16 06:51:21;;;;;;;115.10;65.22;;;5.50;99.90;;;;;;5094787;28;20364;-81
2020/12/16 06:53:49;;;;;;;99.80;53.53;;;5.50;99.90;;;;;;5076561;28;20372;-81
2020/12/16 06:56:19;;;;;;;90.88;50.65;;;5.50;99.90;;;;;;5076520;28;20372;-82
2020/12/16 06:58:46;;;;;;;98.72;55.53;;;5.40;99.90;;;;;;5076436;28;20372;-83
2020/12/16 07:01:13;;;;;;;104.82;60.65;;;5.40;99.90;;;;;;5094537;28;20822;-81
2020/12/16 07:03:40;;;;;;;100.43;56.97;;;5.40;99.90;;;;;;5076477;28;20900;-81
2020/12/16 07:06:11;;;;;;;105.15;61.85;;;5.40;99.90;;;;;;5094480;28;20414;-78
2020/12/16 07:08:38;;;;;;;84.28;50.20;;;5.40;99.90;;;;;;5094404;28;20376;-78
2020/12/16 07:11:05;;;;;;;89.07;49.38;;;5.40;99.90;;;;;;5094700;28;20384;-80
2020/12/16 07:13:35;;;;;;;82.97;47.88;;;5.40;99.90;;;;;;5094350;28;20465;-80
2020/12/16 07:16:05;;;;;;;87.97;52.45;;;5.40;99.90;;;;;;5094300;28;20843;-80
2020/12/16 07:18:49;;;;;;;157.07;54.85;;;5.50;99.90;;;;;;5094273;28;20398;-79
2020/12/16 07:21:17;;;;;;;92.18;51.72;;;5.50;99.90;;;;;;5075912;28;20393;-79
2020/12/16 07:23:55;;;;;;;87.07;48.90;;;5.50;99.90;;;;;;5076105;28;20360;-80
2020/12/16 07:26:36;;;;;;;89.93;49.75;;;5.50;99.90;;;;;;5076006;28;20376;-80
2020/12/16 07:29:38;;;;;;;90.27;48.90;;;5.50;99.90;;;;;;5094110;28;20360;-80
2020/12/16 07:32:06;;;;;;;84.57;48.53;;;5.40;99.90;;;;;;5031780;28;20472;-80
2020/12/16 07:34:49;;;;;;;92.32;49.70;;;5.40;99.90;;;;;;5081266;28;20403;-80
2020/12/16 07:37:19;;;;;;;83.00;46.77;;;5.40;99.90;;;;;;5075722;28;20802;-80
2020/12/16 07:39:54;;;;;;;85.63;47.20;;;5.40;99.90;;;;;;5093911;28;20474;-80
2020/12/16 07:42:23;;;;;;;89.75;47.88;;;5.40;99.90;;;;;;5093709;28;20529;-80
2020/12/16 07:44:49;;;;;;;85.25;46.55;;;5.40;99.90;;;;;;5093834;28;20783;-80
2020/12/16 07:47:16;;;;;;;87.50;49.07;;;5.40;99.90;;;;;;5093640;28;20360;-81
2020/12/16 07:49:43;;;;;;;86.68;48.95;;;5.50;99.90;;;;;;5075467;28;20701;-81
2020/12/16 07:52:09;;;;;;;90.75;46.72;;;5.40;99.90;;;;;;5075431;28;20399;-81
2020/12/16 07:54:36;;;;;;;86.93;46.83;;;5.40;99.90;;;;;;5093568;28;20463;-81
2020/12/16 07:57:02;;;;;;;83.60;46.70;;;5.40;99.90;;;;;;5093365;28;20493;-81
2020/12/16 07:59:33;;;;;;;81.47;45.85;;;5.50;99.90;;;;;;5075254;28;20880;-80
2020/12/16 08:02:15;;;;;;;192.90;57.53;;;5.50;99.90;;;;;;5075068;28;20395;-79
2020/12/16 08:04:43;;;;;;;84.22;46.53;;;5.60;99.90;;;;;;5093340;28;20353;-80
2020/12/16 08:07:20;;;;;;;90.82;52.15;;;5.50;99.90;;;;;;5093267;28;20368;-80
2020/12/16 08:10:01;;;;;;;95.15;50.85;;;5.50;99.90;;;;;;5093254;28;20471;-80
2020/12/16 08:12:30;;;;;;;92.43;52.25;;;5.50;99.90;;;;;;5093218;28;20379;-80
2020/12/16 08:15:09;;;;;;;93.72;51.90;;;5.50;99.90;;;;;;5093161;28;20364;-80
2020/12/16 08:17:43;;;;;;;88.13;50.30;;;5.50;99.90;;;;;;5093074;28;20375;-81
2020/12/16 08:20:17;;;;;;;80.70;45.25;;;5.50;99.90;;;;;;5093012;28;20372;-81
2020/12/16 08:22:46;;;;;;;85.10;47.38;;;5.50;99.90;;;;;;5092853;28;20843;-81
2020/12/16 08:25:15;;;;;;;85.80;47.38;;;5.50;99.90;;;;;;5074801;28;20758;-80
2020/12/16 08:27:53;;;;;;;87.72;48.85;;;5.50;99.90;;;;;;5074746;28;20369;-81
2020/12/16 08:30:20;;;;;;;504.42;81.95;;;5.50;99.90;;;;;;5092822;28;20375;-83
2020/12/16 08:33:00;;;;;;;99.28;46.15;;;5.70;99.90;;;;;;5074695;28;20434;-79
2020/12/16 08:36:06;;;;;;;191.45;57.88;;;6.20;99.90;;;;;;5092601;28;20484;-77
2020/12/16 08:38:35;;;;;;;124.10;54.83;;;6.80;99.90;;;;;;5074527;28;20379;-78
2020/12/16 08:41:04;;;;;;;103.90;51.63;;;7.20;99.90;;;;;;5074163;28;20751;-77
2020/12/16 08:43:35;;;;;;;388.73;314.05;;;7.40;99.90;;;;;;5091816;28;20387;-77
2020/12/16 08:46:14;;;;;;;525.78;383.90;;;7.60;99.90;;;;;;5092408;28;20371;-78
2020/12/16 08:48:43;;;;;;;126.90;69.85;;;7.80;99.90;;;;;;5073957;28;20369;-86
2020/12/16 08:51:10;;;;;;;96.55;55.08;;;8.00;99.90;;;;;;5074253;28;20425;-76
2020/12/16 08:53:45;;;;;;;1874.05;999.90;;;8.40;99.90;;;;;;5091390;28;21210;-75
2020/12/16 08:56:44;;;;;;;387.92;281.83;;;8.90;99.90;;;;;;5090831;28;20372;-78
2020/12/16 08:59:18;;;;;;;97.22;55.75;;;8.50;99.90;;;;;;5090900;28;20368;-77
2020/12/16 09:01:46;;;;;;;168.60;101.75;;;7.60;99.90;;;;;;5091869;28;20457;-79
2020/12/16 09:04:24;;;;;;;107.10;57.65;;;7.20;99.90;;;;;;5091681;28;20893;-78
2020/12/16 09:07:13;;;;;;;101.27;57.03;;;6.80;99.90;;;;;;5091206;28;20398;-78
2020/12/16 09:09:59;;;;;;;104.75;57.75;;;6.60;99.90;;;;;;5091607;28;20376;-78
2020/12/16 09:12:25;;;;;;;149.77;85.60;;;6.30;99.90;;;;;;5091882;28;20415;-79
2020/12/16 09:14:51;;;;;;;105.93;54.75;;;6.20;99.90;;;;;;5092291;28;20819;-79
2020/12/16 09:17:17;;;;;;;111.53;61.42;;;6.10;99.90;;;;;;5091968;28;20388;-79
2020/12/16 09:19:43;;;;;;;137.90;74.78;;;6.30;99.90;;;;;;5074134;28;20372;-79
2020/12/16 09:22:09;;;;;;;160.27;99.03;;;6.20;99.90;;;;;;5092198;28;20459;-81
2020/12/16 09:24:35;;;;;;;113.97;62.55;;;6.20;99.90;;;;;;5091883;28;20367;-80
2020/12/16 09:27:09;;;;;;;140.57;82.78;;;6.20;99.90;;;;;;5092160;28;20720;-80
2020/12/16 09:29:41;;;;;;;223.83;113.63;;;6.20;99.90;;;;;;5073907;28;20371;-79
2020/12/16 09:32:07;;;;;;;219.63;109.78;;;6.10;99.90;;;;;;5091986;28;20882;-79
2020/12/16 09:34:38;;;;;;;151.83;87.80;;;6.20;99.90;;;;;;5091651;28;20518;-79
2020/12/16 09:37:18;;;;;;;124.50;65.78;;;6.20;99.90;;;;;;5091899;28;20445;-79
2020/12/16 09:39:48;;;;;;;142.43;77.10;;;6.20;99.90;;;;;;5073772;28;20381;-80
2020/12/16 09:42:16;;;;;;;125.85;68.22;;;6.10;99.90;;;;;;5072451;28;20387;-79
2020/12/16 09:44:43;;;;;;;125.15;67.68;;;6.20;99.90;;;;;;5073225;28;21232;-80
2020/12/16 09:47:24;;;;;;;170.73;91.63;;;6.10;99.90;;;;;;5087913;28;20360;-79
2020/12/16 09:50:01;;;;;;;134.38;75.10;;;6.10;99.90;;;;;;5089130;28;20376;-79
2020/12/16 09:52:28;;;;;;;187.95;114.72;;;6.10;99.90;;;;;;5071843;28;20381;-80
2020/12/16 09:54:54;;;;;;;119.50;64.88;;;6.10;99.90;;;;;;5091275;28;20369;-80
2020/12/16 09:57:21;;;;;;;115.03;62.58;;;6.10;99.90;;;;;;5095556;28;20360;-80
2020/12/16 09:59:48;;;;;;;123.03;68.50;;;6.10;99.90;;;;;;5095073;28;20720;-80
2020/12/16 10:02:15;;;;;;;137.27;75.28;;;6.20;99.90;;;;;;5076400;28;20423;-80
2020/12/16 10:04:41;;;;;;;175.45;107.85;;;6.30;99.90;;;;;;5094095;28;20375;-80
2020/12/16 10:07:07;;;;;;;176.52;101.38;;;6.30;99.90;;;;;;5094794;28;20715;-78
2020/12/16 10:09:35;;;;;;;147.82;82.30;;;6.40;99.90;;;;;;5076030;28;20561;-78
2020/12/16 10:12:05;;;;;;;148.45;83.57;;;6.30;99.90;;;;;;5076686;28;20380;-79
2020/12/16 10:14:32;;;;;;;141.20;81.43;;;6.30;99.90;;;;;;5092075;28;20719;-79
2020/12/16 10:16:57;;;;;;;157.57;86.40;;;6.30;99.90;;;;;;5076920;28;20372;-80
2020/12/16 10:19:23;;;;;;;155.13;84.47;;;6.30;99.90;;;;;;5095155;28;20360;-79
2020/12/16 10:21:50;;;;;;;164.68;91.70;;;6.40;99.90;;;;;;5094496;28;20406;-82
2020/12/16 10:24:17;;;;;;;177.68;96.88;;;6.50;99.90;;;;;;5077150;28;20750;-80
2020/12/16 10:26:49;;;;;;;193.88;111.18;;;6.60;99.90;;;;;;5095133;28;20393;-81
2020/12/16 10:29:19;;;;;;;263.50;158.95;;;6.60;99.90;;;;;;5094704;28;20365;-80
2020/12/16 10:31:49;;;;;;;355.30;204.48;;;6.60;99.90;;;;;;5073869;28;20371;-80
2020/12/16 10:34:16;;;;;;;725.83;474.42;;;6.60;99.90;;;;;;5094661;28;20400;-80
2020/12/16 10:36:42;;;;;;;466.63;292.02;;;6.70;99.90;;;;;;5094944;28;20368;-82
2020/12/16 10:39:08;;;;;;;297.55;192.52;;;6.60;99.90;;;;;;5076825;28;20387;-81
2020/12/16 10:41:35;;;;;;;206.77;124.93;;;6.70;99.90;;;;;;5094739;28;20393;-81
2020/12/16 10:44:01;;;;;;;194.82;110.35;;;6.80;99.90;;;;;;5094900;28;20378;-80
2020/12/16 10:46:26;;;;;;;199.05;116.85;;;6.90;99.90;;;;;;5094872;28;20909;-81
2020/12/16 10:48:52;;;;;;;203.38;118.93;;;7.00;99.90;;;;;;5094798;28;20452;-81
2020/12/16 10:51:18;;;;;;;210.30;122.80;;;7.00;99.90;;;;;;5094705;28;20380;-81
2020/12/16 10:53:44;;;;;;;217.40;121.00;;;6.80;99.90;;;;;;5094587;28;20896;-81
2020/12/16 10:56:12;;;;;;;210.90;118.85;;;6.80;99.90;;;;;;5094686;28;20399;-81
2020/12/16 10:58:38;;;;;;;263.97;159.77;;;6.70;99.90;;;;;;5076138;28;20412;-81
2020/12/16 11:01:03;;;;;;;222.13;130.70;;;6.80;99.90;;;;;;5093807;28;20384;-81
2020/12/16 11:03:29;;;;;;;179.77;102.03;;;6.80;99.90;;;;;;5075745;28;20772;-81
2020/12/16 11:05:55;;;;;;;172.23;98.33;;;6.90;99.90;;;;;;5075716;28;20604;-81
2020/12/16 11:08:21;;;;;;;177.23;100.43;;;6.90;99.90;;;;;;5076146;28;20357;-81
2020/12/16 11:10:51;;;;;;;287.53;178.80;;;6.90;99.90;;;;;;5094732;28;20383;-81
2020/12/16 11:13:17;;;;;;;222.48;127.13;;;7.00;99.90;;;;;;5094278;28;20837;-81
2020/12/16 11:15:45;;;;;;;211.52;118.20;;;7.10;99.90;;;;;;5094199;28;20720;-81
2020/12/16 11:18:11;;;;;;;197.02;113.25;;;7.10;99.90;;;;;;5076049;28;20365;-80
2020/12/16 11:20:37;;;;;;;195.57;114.23;;;7.00;99.90;;;;;;5075525;28;20407;-81
2020/12/16 11:23:03;;;;;;;210.30;120.40;;;6.90;99.90;;;;;;5093988;28;20369;-80
2020/12/16 11:25:30;;;;;;;201.57;115.33;;;7.00;99.90;;;;;;5075440;28;20498;-78
2020/12/16 11:27:55;;;;;;;206.87;117.27;;;6.90;99.90;;;;;;5075987;28;20381;-78
2020/12/16 11:30:21;;;;;;;246.90;145.90;;;6.90;99.90;;;;;;5075714;28;20387;-80
2020/12/16 11:32:47;;;;;;;217.20;127.45;;;6.90;99.90;;;;;;5093295;28;20371;-80
2020/12/16 11:35:13;;;;;;;209.02;119.75;;;6.90;99.90;;;;;;5074527;28;20396;-80
2020/12/16 11:37:43;;;;;;;222.52;127.72;;;6.80;99.90;;;;;;5093696;28;20387;-80
2020/12/16 11:40:09;;;;;;;228.95;130.02;;;6.90;99.90;;;;;;5076639;28;20373;-80
2020/12/16 11:42:35;;;;;;;236.63;136.73;;;6.90;99.90;;;;;;5107987;28;20415;-80
2020/12/16 11:45:01;;;;;;;238.13;134.48;;;7.00;99.90;;;;;;5097627;28;20373;-80
2020/12/16 11:47:27;;;;;;;217.13;123.00;;;7.10;99.90;;;;;;5110162;28;20423;-82
2020/12/16 11:49:53;;;;;;;243.32;144.52;;;7.10;99.90;;;;;;5099114;28;20428;-79
2020/12/16 11:52:18;;;;;;;198.13;114.10;;;7.10;99.90;;;;;;5085392;28;20375;-78
2020/12/16 11:54:44;;;;;;;208.40;119.72;;;7.00;99.90;;;;;;5106734;28;20458;-79
2020/12/16 11:57:10;;;;;;;201.60;120.90;;;7.00;99.90;;;;;;5096349;28;20422;-80
2020/12/16 11:59:36;;;;;;;228.23;131.48;;;6.90;99.90;;;;;;5106334;28;20358;-80
2020/12/16 12:02:03;;;;;;;210.52;126.93;;;7.10;99.90;;;;;;5105868;28;20879;-80
2020/12/16 12:04:29;;;;;;;182.83;106.37;;;7.10;99.90;;;;;;5104324;28;20367;-80
2020/12/16 12:06:55;;;;;;;190.32;111.78;;;7.20;99.90;;;;;;5098207;28;20372;-80
2020/12/16 12:09:22;;;;;;;263.83;154.55;;;7.20;99.90;;;;;;5109472;28;20374;-81
2020/12/16 12:11:49;;;;;;;235.07;143.43;;;7.20;99.90;;;;;;5098169;28;20370;-81
2020/12/16 12:14:16;;;;;;;183.40;108.57;;;7.20;99.90;;;;;;5085603;28;21165;-79
2020/12/16 12:16:43;;;;;;;169.55;101.63;;;7.30;99.90;;;;;;5106102;28;20419;-77
2020/12/16 12:19:09;;;;;;;180.50;105.13;;;7.30;99.90;;;;;;5076457;28;20908;-82
2020/12/16 12:21:35;;;;;;;187.93;107.57;;;7.20;99.90;;;;;;5108681;28;20384;-79
2020/12/16 12:24:00;;;;;;;191.63;111.60;;;7.40;99.90;;;;;;5092400;28;20364;-80
2020/12/16 12:26:27;;;;;;;211.53;124.13;;;7.50;99.90;;;;;;5091868;28;21198;-80
2020/12/16 12:28:53;;;;;;;226.10;131.43;;;7.40;99.90;;;;;;5087138;28;20356;-79
2020/12/16 12:31:19;;;;;;;267.20;126.30;;;7.30;99.90;;;;;;5092509;28;20918;-80
2020/12/16 12:33:45;;;;;;;228.73;129.83;;;7.30;99.90;;;;;;5087628;28;20392;-81
2020/12/16 12:36:11;;;;;;;236.03;134.07;;;7.10;99.90;;;;;;5074000;28;20376;-82